sensor_id;sensor_type;location;lat;lon;timestamp;pressure;altitude;pressure_sealevel;temperature;humidity
51081;BME280;37130;55.670;37.596;2023-08-17T00:02:25;100212.78;;;17.32;84.89
51081;BME280;37130;55.670;37.596;2023-08-17T00:04:52;100204.94;;;17.29;84.90
51081;BME280;37130;55.670;37.596;2023-08-17T00:07:20;100212.88;;;17.30;85.10
51081;BME280;37130;55.670;37.596;2023-08-17T00:09:47;100208.50;;;17.29;85.31
51081;BME280;37130;55.670;37.596;2023-08-17T00:12:15;100188.94;;;17.15;84.91
51081;BME280;37130;55.670;37.596;2023-08-17T00:14:42;100212.31;;;17.25;85.18
51081;BME280;37130;55.670;37.596;2023-08-17T00:17:10;100205.47;;;17.21;85.25
51081;BME280;37130;55.670;37.596;2023-08-17T00:19:37;100205.84;;;17.15;85.42
51081;BME280;37130;55.670;37.596;2023-08-17T00:22:05;100222.25;;;17.23;85.40
51081;BME280;37130;55.670;37.596;2023-08-17T00:24:32;100225.81;;;17.24;85.38
51081;BME280;37130;55.670;37.596;2023-08-17T00:27:00;100232.25;;;17.21;85.69
51081;BME280;37130;55.670;37.596;2023-08-17T00:29:27;100225.44;;;17.16;85.70
51081;BME280;37130;55.670;37.596;2023-08-17T00:31:56;100176.41;;;16.88;85.78
51081;BME280;37130;55.670;37.596;2023-08-17T00:34:24;100223.09;;;17.11;85.85
51081;BME280;37130;55.670;37.596;2023-08-17T00:36:51;100216.28;;;17.05;86.02
51081;BME280;37130;55.670;37.596;2023-08-17T00:39:19;100163.19;;;16.71;85.76
51081;BME280;37130;55.670;37.596;2023-08-17T00:41:47;100212.97;;;17.02;85.75
51081;BME280;37130;55.670;37.596;2023-08-17T00:44:15;100144.13;;;16.62;86.06
51081;BME280;37130;55.670;37.596;2023-08-17T00:46:43;100233.03;;;17.09;86.19
51081;BME280;37130;55.670;37.596;2023-08-17T00:49:12;100234.06;;;17.06;86.37
51081;BME280;37130;55.670;37.596;2023-08-17T00:51:41;100232.53;;;17.02;86.26
51081;BME280;37130;55.670;37.596;2023-08-17T00:54:09;100220.53;;;16.95;86.37
51081;BME280;37130;55.670;37.596;2023-08-17T00:56:38;100201.53;;;16.85;86.48
51081;BME280;37130;55.670;37.596;2023-08-17T00:59:05;100231.13;;;16.97;86.72
51081;BME280;37130;55.670;37.596;2023-08-17T01:01:33;100232.09;;;16.96;86.68
51081;BME280;37130;55.670;37.596;2023-08-17T01:04:00;100240.78;;;16.99;86.92
51081;BME280;37130;55.670;37.596;2023-08-17T01:06:28;100226.19;;;16.91;86.81
51081;BME280;37130;55.670;37.596;2023-08-17T01:08:55;100224.44;;;16.90;86.79
51081;BME280;37130;55.670;37.596;2023-08-17T01:14:05;100233.84;;;16.82;86.60
51081;BME280;37130;55.670;37.596;2023-08-17T01:16:52;100212.22;;;16.57;86.45
51081;BME280;37130;55.670;37.596;2023-08-17T01:19:26;100235.34;;;16.72;87.03
51081;BME280;37130;55.670;37.596;2023-08-17T01:21:57;100226.34;;;16.73;87.18
51081;BME280;37130;55.670;37.596;2023-08-17T01:24:27;100204.59;;;16.51;87.31
51081;BME280;37130;55.670;37.596;2023-08-17T01:26:54;100209.28;;;16.61;87.28
51081;BME280;37130;55.670;37.596;2023-08-17T01:29:22;100156.28;;;16.25;87.36
51081;BME280;37130;55.670;37.596;2023-08-17T01:31:58;100236.09;;;16.74;87.23
51081;BME280;37130;55.670;37.596;2023-08-17T01:34:33;100221.59;;;16.64;87.55
51081;BME280;37130;55.670;37.596;2023-08-17T01:37:07;100086.69;;;15.84;87.24
51081;BME280;37130;55.670;37.596;2023-08-17T01:39:43;100229.31;;;16.69;87.40
51081;BME280;37130;55.670;37.596;2023-08-17T01:42:12;100224.25;;;16.64;87.49
51081;BME280;37130;55.670;37.596;2023-08-17T01:44:40;100240.56;;;16.74;87.86
51081;BME280;37130;55.670;37.596;2023-08-17T01:47:08;100227.59;;;16.68;88.09
51081;BME280;37130;55.670;37.596;2023-08-17T01:49:36;100231.91;;;16.70;87.86
51081;BME280;37130;55.670;37.596;2023-08-17T01:52:04;100237.91;;;16.74;88.03
51081;BME280;37130;55.670;37.596;2023-08-17T01:54:32;100241.47;;;16.74;87.74
51081;BME280;37130;55.670;37.596;2023-08-17T01:57:00;100230.34;;;16.66;88.14
51081;BME280;37130;55.670;37.596;2023-08-17T01:59:27;100246.88;;;16.73;88.22
51081;BME280;37130;55.670;37.596;2023-08-17T02:01:55;100240.50;;;16.75;88.01
51081;BME280;37130;55.670;37.596;2023-08-17T02:04:23;100243.84;;;16.79;87.98
51081;BME280;37130;55.670;37.596;2023-08-17T02:06:50;100237.81;;;16.75;87.99
51081;BME280;37130;55.670;37.596;2023-08-17T02:09:18;100236.84;;;16.76;88.75
51081;BME280;37130;55.670;37.596;2023-08-17T02:11:46;100240.25;;;16.80;88.42
51081;BME280;37130;55.670;37.596;2023-08-17T02:14:13;100238.22;;;16.83;88.38
51081;BME280;37130;55.670;37.596;2023-08-17T02:16:41;100166.97;;;16.39;88.16
51081;BME280;37130;55.670;37.596;2023-08-17T02:19:11;100257.44;;;16.90;87.82
51081;BME280;37130;55.670;37.596;2023-08-17T02:21:39;100208.78;;;16.69;87.74
51081;BME280;37130;55.670;37.596;2023-08-17T02:24:08;100256.25;;;16.94;87.44
51081;BME280;37130;55.670;37.596;2023-08-17T02:26:35;100224.00;;;16.83;87.33
51081;BME280;37130;55.670;37.596;2023-08-17T02:29:05;100237.44;;;16.96;87.40
51081;BME280;37130;55.670;37.596;2023-08-17T02:31:33;100194.66;;;16.67;87.06
51081;BME280;37130;55.670;37.596;2023-08-17T02:34:00;100253.47;;;17.10;86.61
51081;BME280;37130;55.670;37.596;2023-08-17T02:36:32;100136.50;;;16.42;86.27
51081;BME280;37130;55.670;37.596;2023-08-17T02:39:02;100258.13;;;17.21;86.08
51081;BME280;37130;55.670;37.596;2023-08-17T02:41:30;100253.44;;;17.24;86.05
51081;BME280;37130;55.670;37.596;2023-08-17T02:44:00;100227.06;;;17.18;85.98
51081;BME280;37130;55.670;37.596;2023-08-17T02:46:28;100232.47;;;17.31;85.76
51081;BME280;37130;55.670;37.596;2023-08-17T02:48:55;100243.44;;;17.41;85.39
51081;BME280;37130;55.670;37.596;2023-08-17T02:51:23;100233.59;;;17.41;85.19
51081;BME280;37130;55.670;37.596;2023-08-17T02:53:51;100183.38;;;17.18;84.92
51081;BME280;37130;55.670;37.596;2023-08-17T02:56:19;100179.34;;;17.25;84.46
51081;BME280;37130;55.670;37.596;2023-08-17T02:58:47;100264.13;;;17.79;84.37
51081;BME280;37130;55.670;37.596;2023-08-17T03:01:16;100260.03;;;17.87;84.13
51081;BME280;37130;55.670;37.596;2023-08-17T03:03:43;100243.09;;;17.87;83.77
51081;BME280;37130;55.670;37.596;2023-08-17T03:06:11;100248.06;;;19.32;80.58
51081;BME280;37130;55.670;37.596;2023-08-17T03:08:40;100249.56;;;22.40;71.02
51081;BME280;37130;55.670;37.596;2023-08-17T03:11:10;100251.06;;;24.99;62.99
51081;BME280;37130;55.670;37.596;2023-08-17T03:13:38;100268.72;;;27.16;57.52
51081;BME280;37130;55.670;37.596;2023-08-17T03:16:05;100272.31;;;28.82;53.34
51081;BME280;37130;55.670;37.596;2023-08-17T03:18:33;100204.44;;;29.81;50.28
51081;BME280;37130;55.670;37.596;2023-08-17T03:21:00;100272.78;;;31.31;47.74
51081;BME280;37130;55.670;37.596;2023-08-17T03:23:28;100274.06;;;32.29;45.33
51081;BME280;37130;55.670;37.596;2023-08-17T03:25:56;100293.34;;;33.33;43.28
51081;BME280;37130;55.670;37.596;2023-08-17T03:28:23;100284.72;;;34.18;41.50
51081;BME280;37130;55.670;37.596;2023-08-17T03:30:55;100210.44;;;34.64;39.69
51081;BME280;37130;55.670;37.596;2023-08-17T03:33:24;100276.38;;;35.63;37.84
51081;BME280;37130;55.670;37.596;2023-08-17T03:35:52;100274.38;;;36.15;37.20
51081;BME280;37130;55.670;37.596;2023-08-17T03:38:19;100211.56;;;36.17;35.75
51081;BME280;37130;55.670;37.596;2023-08-17T03:40:47;100287.25;;;36.46;35.62
51081;BME280;37130;55.670;37.596;2023-08-17T03:43:15;100236.00;;;34.85;37.16
51081;BME280;37130;55.670;37.596;2023-08-17T03:45:43;100291.94;;;35.44;37.27
51081;BME280;37130;55.670;37.596;2023-08-17T03:48:10;100285.97;;;36.49;35.68
51081;BME280;37130;55.670;37.596;2023-08-17T03:50:38;100275.09;;;36.29;35.35
51081;BME280;37130;55.670;37.596;2023-08-17T03:53:06;100290.94;;;36.83;34.37
51081;BME280;37130;55.670;37.596;2023-08-17T03:55:34;100303.09;;;37.01;34.02
51081;BME280;37130;55.670;37.596;2023-08-17T03:58:01;100237.50;;;37.15;33.10
51081;BME280;37130;55.670;37.596;2023-08-17T04:00:29;100290.59;;;38.37;32.04
51081;BME280;37130;55.670;37.596;2023-08-17T04:02:58;100192.19;;;39.06;30.14
51081;BME280;37130;55.670;37.596;2023-08-17T04:05:27;100247.66;;;40.42;28.61
51081;BME280;37130;55.670;37.596;2023-08-17T04:07:54;100296.41;;;41.28;27.78
51081;BME280;37130;55.670;37.596;2023-08-17T04:10:22;100301.91;;;41.67;27.01
51081;BME280;37130;55.670;37.596;2023-08-17T04:12:50;100305.78;;;42.20;26.29
51081;BME280;37130;55.670;37.596;2023-08-17T04:15:17;100301.09;;;43.00;24.87
51081;BME280;37130;55.670;37.596;2023-08-17T04:17:45;100306.38;;;43.60;23.94
51081;BME280;37130;55.670;37.596;2023-08-17T04:20:12;100302.31;;;44.08;23.59
51081;BME280;37130;55.670;37.596;2023-08-17T04:22:40;100301.19;;;44.30;23.01
51081;BME280;37130;55.670;37.596;2023-08-17T04:25:08;100305.66;;;44.31;22.83
51081;BME280;37130;55.670;37.596;2023-08-17T04:27:36;100309.00;;;44.23;22.80
51081;BME280;37130;55.670;37.596;2023-08-17T04:30:04;100313.44;;;44.75;21.99
51081;BME280;37130;55.670;37.596;2023-08-17T04:32:39;100318.97;;;45.11;21.98
51081;BME280;37130;55.670;37.596;2023-08-17T04:35:07;100321.66;;;45.41;21.18
51081;BME280;37130;55.670;37.596;2023-08-17T04:37:35;100322.81;;;45.85;20.86
51081;BME280;37130;55.670;37.596;2023-08-17T04:40:03;100320.50;;;46.37;19.74
51081;BME280;37130;55.670;37.596;2023-08-17T04:42:32;100322.03;;;46.53;20.28
51081;BME280;37130;55.670;37.596;2023-08-17T04:44:59;100327.03;;;46.56;19.58
51081;BME280;37130;55.670;37.596;2023-08-17T04:47:30;100318.94;;;46.84;19.44
51081;BME280;37130;55.670;37.596;2023-08-17T04:49:57;100323.75;;;47.07;19.39
51081;BME280;37130;55.670;37.596;2023-08-17T04:52:25;100287.81;;;47.09;18.70
51081;BME280;37130;55.670;37.596;2023-08-17T04:54:52;100316.72;;;47.10;19.35
51081;BME280;37130;55.670;37.596;2023-08-17T04:57:20;100328.19;;;47.56;18.15
51081;BME280;37130;55.670;37.596;2023-08-17T04:59:48;100309.22;;;47.48;18.75
51081;BME280;37130;55.670;37.596;2023-08-17T05:02:16;100275.81;;;47.04;18.63
51081;BME280;37130;55.670;37.596;2023-08-17T05:04:46;100324.56;;;47.56;18.21
51081;BME280;37130;55.670;37.596;2023-08-17T05:07:14;100308.25;;;47.77;17.51
51081;BME280;37130;55.670;37.596;2023-08-17T05:09:41;100316.66;;;47.77;17.87
51081;BME280;37130;55.670;37.596;2023-08-17T05:12:09;100326.41;;;48.36;17.32
51081;BME280;37130;55.670;37.596;2023-08-17T05:14:37;100319.81;;;48.60;16.87
51081;BME280;37130;55.670;37.596;2023-08-17T05:17:04;100315.69;;;48.85;16.91
51081;BME280;37130;55.670;37.596;2023-08-17T05:19:32;100328.59;;;48.86;16.79
51081;BME280;37130;55.670;37.596;2023-08-17T05:22:00;100322.66;;;48.74;16.71
51081;BME280;37130;55.670;37.596;2023-08-17T05:24:28;100316.19;;;48.73;15.98
51081;BME280;37130;55.670;37.596;2023-08-17T05:26:55;100238.63;;;48.39;16.30
51081;BME280;37130;55.670;37.596;2023-08-17T05:29:23;100328.75;;;49.08;16.60
51081;BME280;37130;55.670;37.596;2023-08-17T05:31:51;100333.84;;;49.20;16.21
51081;BME280;37130;55.670;37.596;2023-08-17T05:34:19;100332.38;;;49.50;16.00
51081;BME280;37130;55.670;37.596;2023-08-17T05:36:46;100337.06;;;49.69;15.57
51081;BME280;37130;55.670;37.596;2023-08-17T05:39:14;100333.66;;;49.81;15.78
51081;BME280;37130;55.670;37.596;2023-08-17T05:41:41;100321.81;;;49.70;15.85
51081;BME280;37130;55.670;37.596;2023-08-17T05:44:10;100328.72;;;49.86;15.64
51081;BME280;37130;55.670;37.596;2023-08-17T05:46:37;100315.66;;;49.68;15.80
51081;BME280;37130;55.670;37.596;2023-08-17T05:49:06;100327.56;;;49.51;15.72
51081;BME280;37130;55.670;37.596;2023-08-17T05:51:34;100313.41;;;49.42;15.50
51081;BME280;37130;55.670;37.596;2023-08-17T05:54:02;100325.72;;;49.19;16.05
51081;BME280;37130;55.670;37.596;2023-08-17T05:56:30;100279.44;;;48.69;15.93
51081;BME280;37130;55.670;37.596;2023-08-17T05:58:58;100309.97;;;48.43;16.40
51081;BME280;37130;55.670;37.596;2023-08-17T06:01:26;100317.69;;;48.84;16.03
51081;BME280;37130;55.670;37.596;2023-08-17T06:03:53;100315.09;;;49.29;15.80
51081;BME280;37130;55.670;37.596;2023-08-17T06:06:21;100324.94;;;50.05;15.56
51081;BME280;37130;55.670;37.596;2023-08-17T06:08:48;100313.16;;;49.66;15.69
51081;BME280;37130;55.670;37.596;2023-08-17T06:11:16;100323.75;;;49.83;15.75
51081;BME280;37130;55.670;37.596;2023-08-17T06:13:43;100326.47;;;50.11;15.15
51081;BME280;37130;55.670;37.596;2023-08-17T06:16:11;100326.00;;;49.95;15.07
51081;BME280;37130;55.670;37.596;2023-08-17T06:18:39;100318.28;;;49.50;15.14
51081;BME280;37130;55.670;37.596;2023-08-17T06:21:06;100313.41;;;49.42;15.19
51081;BME280;37130;55.670;37.596;2023-08-17T06:23:34;100317.69;;;50.12;14.69
51081;BME280;37130;55.670;37.596;2023-08-17T06:26:01;100319.84;;;50.92;14.51
51081;BME280;37130;55.670;37.596;2023-08-17T06:28:29;100323.66;;;50.96;14.60
51081;BME280;37130;55.670;37.596;2023-08-17T06:30:56;100280.44;;;51.18;14.02
51081;BME280;37130;55.670;37.596;2023-08-17T06:33:24;100310.56;;;51.48;13.91
51081;BME280;37130;55.670;37.596;2023-08-17T06:35:51;100319.88;;;51.66;14.39
51081;BME280;37130;55.670;37.596;2023-08-17T06:38:19;100284.13;;;52.23;13.54
51081;BME280;37130;55.670;37.596;2023-08-17T06:40:47;100310.28;;;52.67;13.24
51081;BME280;37130;55.670;37.596;2023-08-17T06:43:15;100283.16;;;50.92;13.88
51081;BME280;37130;55.670;37.596;2023-08-17T06:45:45;100301.06;;;49.88;14.17
51081;BME280;37130;55.670;37.596;2023-08-17T06:48:12;100312.53;;;49.69;14.84
51081;BME280;37130;55.670;37.596;2023-08-17T06:50:40;100314.06;;;49.25;15.11
51081;BME280;37130;55.670;37.596;2023-08-17T06:53:07;100303.72;;;48.79;14.80
51081;BME280;37130;55.670;37.596;2023-08-17T06:55:34;100251.75;;;48.90;15.05
51081;BME280;37130;55.670;37.596;2023-08-17T06:58:02;100311.28;;;50.43;14.69
51081;BME280;37130;55.670;37.596;2023-08-17T07:00:29;100315.00;;;50.83;13.65
51081;BME280;37130;55.670;37.596;2023-08-17T07:02:57;100277.41;;;51.05;13.53
51081;BME280;37130;55.670;37.596;2023-08-17T07:05:27;100309.19;;;50.26;13.65
51081;BME280;37130;55.670;37.596;2023-08-17T07:07:54;100273.13;;;49.92;14.04
51081;BME280;37130;55.670;37.596;2023-08-17T07:10:22;100296.63;;;50.10;14.13
51081;BME280;37130;55.670;37.596;2023-08-17T07:12:50;100318.34;;;50.09;14.00
51081;BME280;37130;55.670;37.596;2023-08-17T07:15:18;100310.41;;;50.65;14.16
51081;BME280;37130;55.670;37.596;2023-08-17T07:17:45;100316.28;;;51.17;13.17
51081;BME280;37130;55.670;37.596;2023-08-17T07:20:15;100309.84;;;51.34;13.14
51081;BME280;37130;55.670;37.596;2023-08-17T07:22:43;100309.50;;;51.18;13.50
51081;BME280;37130;55.670;37.596;2023-08-17T07:25:11;100305.97;;;51.70;13.60
51081;BME280;37130;55.670;37.596;2023-08-17T07:27:39;100256.38;;;51.64;12.58
51081;BME280;37130;55.670;37.596;2023-08-17T07:30:06;100301.03;;;51.27;12.99
51081;BME280;37130;55.670;37.596;2023-08-17T07:32:34;100302.00;;;51.14;12.72
51081;BME280;37130;55.670;37.596;2023-08-17T07:35:02;100311.19;;;50.57;13.00
51081;BME280;37130;55.670;37.596;2023-08-17T07:37:31;100289.66;;;49.07;14.37
51081;BME280;37130;55.670;37.596;2023-08-17T07:40:01;100302.03;;;48.32;14.27
51081;BME280;37130;55.670;37.596;2023-08-17T07:42:32;100295.66;;;48.26;15.15
51081;BME280;37130;55.670;37.596;2023-08-17T07:45:01;100248.34;;;48.47;14.92
51081;BME280;37130;55.670;37.596;2023-08-17T07:47:30;100292.84;;;49.42;14.67
51081;BME280;37130;55.670;37.596;2023-08-17T07:49:58;100302.44;;;49.91;14.32
51081;BME280;37130;55.670;37.596;2023-08-17T07:52:26;100293.03;;;49.95;13.67
51081;BME280;37130;55.670;37.596;2023-08-17T07:54:53;100252.03;;;49.17;13.90
51081;BME280;37130;55.670;37.596;2023-08-17T07:57:21;100286.06;;;48.60;14.78
51081;BME280;37130;55.670;37.596;2023-08-17T07:59:49;100295.38;;;48.88;14.08
51081;BME280;37130;55.670;37.596;2023-08-17T08:02:17;100264.34;;;48.00;14.52
51081;BME280;37130;55.670;37.596;2023-08-17T08:04:45;100283.53;;;48.44;14.13
51081;BME280;37130;55.670;37.596;2023-08-17T08:07:12;100304.09;;;48.59;14.11
51081;BME280;37130;55.670;37.596;2023-08-17T08:09:40;100294.41;;;47.99;14.59
51081;BME280;37130;55.670;37.596;2023-08-17T08:12:07;100288.22;;;47.83;14.85
51081;BME280;37130;55.670;37.596;2023-08-17T08:14:35;100289.94;;;48.17;14.49
51081;BME280;37130;55.670;37.596;2023-08-17T08:17:03;100279.97;;;48.39;14.50
51081;BME280;37130;55.670;37.596;2023-08-17T08:19:30;100251.59;;;48.54;14.22
51081;BME280;37130;55.670;37.596;2023-08-17T08:21:59;100278.81;;;49.14;13.40
51081;BME280;37130;55.670;37.596;2023-08-17T08:24:28;100286.00;;;49.34;14.05
51081;BME280;37130;55.670;37.596;2023-08-17T08:27:04;100281.69;;;49.50;13.44
51081;BME280;37130;55.670;37.596;2023-08-17T08:29:33;100285.69;;;48.94;13.63
51081;BME280;37130;55.670;37.596;2023-08-17T08:32:01;100263.41;;;48.04;13.72
51081;BME280;37130;55.670;37.596;2023-08-17T08:34:30;100249.59;;;47.13;14.71
51081;BME280;37130;55.670;37.596;2023-08-17T08:36:57;100274.69;;;45.38;15.26
51081;BME280;37130;55.670;37.596;2023-08-17T08:39:26;100256.66;;;42.78;17.27
51081;BME280;37130;55.670;37.596;2023-08-17T08:41:55;100254.56;;;40.57;18.94
51081;BME280;37130;55.670;37.596;2023-08-17T08:44:22;100245.81;;;37.75;21.96
51081;BME280;37130;55.670;37.596;2023-08-17T08:46:53;100231.25;;;36.20;23.56
51081;BME280;37130;55.670;37.596;2023-08-17T08:49:23;100199.91;;;34.01;25.36
51081;BME280;37130;55.670;37.596;2023-08-17T08:51:51;100234.44;;;32.31;27.07
51081;BME280;37130;55.670;37.596;2023-08-17T08:54:26;100228.00;;;31.02;27.55
51081;BME280;37130;55.670;37.596;2023-08-17T08:56:59;100220.50;;;31.40;28.43
51081;BME280;37130;55.670;37.596;2023-08-17T08:59:28;100218.38;;;31.06;29.33
51081;BME280;37130;55.670;37.596;2023-08-17T09:01:58;100226.97;;;30.88;30.32
51081;BME280;37130;55.670;37.596;2023-08-17T09:04:25;100160.88;;;30.40;30.66
51081;BME280;37130;55.670;37.596;2023-08-17T09:06:53;100220.00;;;30.86;31.03
51081;BME280;37130;55.670;37.596;2023-08-17T09:09:22;100229.91;;;30.87;30.97
51081;BME280;37130;55.670;37.596;2023-08-17T09:11:56;100226.47;;;30.70;31.62
51081;BME280;37130;55.670;37.596;2023-08-17T09:14:23;100212.06;;;30.61;31.02
51081;BME280;37130;55.670;37.596;2023-08-17T09:16:51;100222.78;;;30.33;31.76
51081;BME280;37130;55.670;37.596;2023-08-17T09:19:19;100211.22;;;30.23;32.43
51081;BME280;37130;55.670;37.596;2023-08-17T09:21:47;100224.44;;;30.19;32.65
51081;BME280;37130;55.670;37.596;2023-08-17T09:24:17;100219.38;;;29.93;33.11
51081;BME280;37130;55.670;37.596;2023-08-17T09:26:45;100209.66;;;29.90;33.90
51081;BME280;37130;55.670;37.596;2023-08-17T09:29:21;100210.81;;;29.96;33.09
51081;BME280;37130;55.670;37.596;2023-08-17T09:31:50;100208.69;;;29.83;32.87
51081;BME280;37130;55.670;37.596;2023-08-17T09:34:18;100218.13;;;29.49;33.28
51081;BME280;37130;55.670;37.596;2023-08-17T09:36:46;100128.22;;;28.62;34.02
51081;BME280;37130;55.670;37.596;2023-08-17T09:39:17;100145.28;;;28.40;34.35
51081;BME280;37130;55.670;37.596;2023-08-17T09:41:45;100197.66;;;28.83;35.13
51081;BME280;37130;55.670;37.596;2023-08-17T09:44:12;100214.28;;;29.04;34.81
51081;BME280;37130;55.670;37.596;2023-08-17T09:46:42;100203.78;;;28.85;34.68
51081;BME280;37130;55.670;37.596;2023-08-17T09:49:10;100058.75;;;28.03;34.91
51081;BME280;37130;55.670;37.596;2023-08-17T09:51:38;100213.31;;;28.89;34.78
51081;BME280;37130;55.670;37.596;2023-08-17T09:54:20;100199.88;;;28.88;34.75
51081;BME280;37130;55.670;37.596;2023-08-17T09:56:52;100210.09;;;28.86;35.38
51081;BME280;37130;55.670;37.596;2023-08-17T09:59:20;100215.38;;;28.79;34.87
51081;BME280;37130;55.670;37.596;2023-08-17T10:01:49;100217.47;;;28.69;35.30
51081;BME280;37130;55.670;37.596;2023-08-17T10:04:23;100213.25;;;28.58;35.51
51081;BME280;37130;55.670;37.596;2023-08-17T10:06:58;100066.69;;;27.48;36.04
51081;BME280;37130;55.670;37.596;2023-08-17T10:09:31;100129.25;;;27.89;36.21
51081;BME280;37130;55.670;37.596;2023-08-17T10:12:08;100210.38;;;28.51;36.02
51081;BME280;37130;55.670;37.596;2023-08-17T10:14:39;100192.97;;;28.60;36.59
51081;BME280;37130;55.670;37.596;2023-08-17T10:17:19;100210.31;;;28.68;36.25
51081;BME280;37130;55.670;37.596;2023-08-17T10:19:58;100187.91;;;28.49;35.86
51081;BME280;37130;55.670;37.596;2023-08-17T10:22:56;100178.34;;;28.37;36.08
51081;BME280;37130;55.670;37.596;2023-08-17T10:25:29;100185.69;;;28.45;36.39
51081;BME280;37130;55.670;37.596;2023-08-17T10:27:56;100201.50;;;28.57;36.56
51081;BME280;37130;55.670;37.596;2023-08-17T10:30:26;100192.31;;;28.42;36.06
51081;BME280;37130;55.670;37.596;2023-08-17T10:32:55;100191.81;;;28.38;36.46
51081;BME280;37130;55.670;37.596;2023-08-17T10:35:23;100198.44;;;28.52;36.40
51081;BME280;37130;55.670;37.596;2023-08-17T10:37:51;100194.13;;;28.66;36.40
51081;BME280;37130;55.670;37.596;2023-08-17T10:40:28;100191.56;;;28.73;35.94
51081;BME280;37130;55.670;37.596;2023-08-17T10:42:56;100185.88;;;28.35;35.76
51081;BME280;37130;55.670;37.596;2023-08-17T10:45:28;100202.22;;;28.27;36.16
51081;BME280;37130;55.670;37.596;2023-08-17T10:50:37;100188.94;;;28.15;36.48
51081;BME280;37130;55.670;37.596;2023-08-17T10:53:11;100188.59;;;28.27;36.63
51081;BME280;37130;55.670;37.596;2023-08-17T10:55:41;100187.91;;;28.33;36.51
51081;BME280;37130;55.670;37.596;2023-08-17T10:58:08;100199.16;;;28.46;36.91
51081;BME280;37130;55.670;37.596;2023-08-17T11:00:39;100189.75;;;28.57;37.03
51081;BME280;37130;55.670;37.596;2023-08-17T11:03:08;100188.69;;;28.66;37.05
51081;BME280;37130;55.670;37.596;2023-08-17T11:05:52;100179.19;;;28.54;36.63
51081;BME280;37130;55.670;37.596;2023-08-17T11:08:23;100181.09;;;28.53;36.42
51081;BME280;37130;55.670;37.596;2023-08-17T11:11:12;100184.44;;;28.55;36.83
51081;BME280;37130;55.670;37.596;2023-08-17T11:13:43;100171.00;;;28.62;37.38
51081;BME280;37130;55.670;37.596;2023-08-17T11:16:13;100174.03;;;28.67;36.77
51081;BME280;37130;55.670;37.596;2023-08-17T11:18:46;100088.22;;;27.99;36.56
51081;BME280;37130;55.670;37.596;2023-08-17T11:21:16;100155.03;;;28.34;36.18
51081;BME280;37130;55.670;37.596;2023-08-17T11:23:46;100169.84;;;28.32;36.84
51081;BME280;37130;55.670;37.596;2023-08-17T11:26:18;100173.75;;;28.29;36.46
51081;BME280;37130;55.670;37.596;2023-08-17T11:28:46;100175.66;;;28.21;36.65
51081;BME280;37130;55.670;37.596;2023-08-17T11:31:14;100134.53;;;27.83;36.68
51081;BME280;37130;55.670;37.596;2023-08-17T11:33:44;100107.28;;;27.66;37.01
51081;BME280;37130;55.670;37.596;2023-08-17T11:36:15;100134.69;;;27.97;37.32
51081;BME280;37130;55.670;37.596;2023-08-17T11:38:43;100159.31;;;28.21;36.88
51081;BME280;37130;55.670;37.596;2023-08-17T11:41:11;100152.00;;;28.21;36.40
51081;BME280;37130;55.670;37.596;2023-08-17T11:43:42;100150.63;;;28.25;36.32
51081;BME280;37130;55.670;37.596;2023-08-17T11:46:09;100148.91;;;28.24;36.51
51081;BME280;37130;55.670;37.596;2023-08-17T11:48:37;100144.31;;;28.33;36.70
51081;BME280;37130;55.670;37.596;2023-08-17T11:51:05;100134.41;;;28.40;37.15
51081;BME280;37130;55.670;37.596;2023-08-17T11:53:33;100146.34;;;28.47;37.05
51081;BME280;37130;55.670;37.596;2023-08-17T11:56:02;100124.53;;;28.39;37.07
51081;BME280;37130;55.670;37.596;2023-08-17T11:58:41;100127.25;;;28.47;36.59
51081;BME280;37130;55.670;37.596;2023-08-17T12:01:11;100146.31;;;28.55;36.46
51081;BME280;37130;55.670;37.596;2023-08-17T12:03:39;100017.50;;;27.83;36.19
51081;BME280;37130;55.670;37.596;2023-08-17T12:06:09;100107.00;;;28.33;36.21
51081;BME280;37130;55.670;37.596;2023-08-17T12:08:37;100125.56;;;28.38;36.62
51081;BME280;37130;55.670;37.596;2023-08-17T12:11:04;100127.25;;;28.39;36.23
51081;BME280;37130;55.670;37.596;2023-08-17T12:13:34;100123.19;;;28.35;36.57
51081;BME280;37130;55.670;37.596;2023-08-17T12:16:02;100122.00;;;28.46;36.90
51081;BME280;37130;55.670;37.596;2023-08-17T12:18:34;100112.31;;;28.35;35.59
51081;BME280;37130;55.670;37.596;2023-08-17T12:21:03;100065.91;;;27.95;36.42
51081;BME280;37130;55.670;37.596;2023-08-17T12:23:32;100047.38;;;27.74;35.89
51081;BME280;37130;55.670;37.596;2023-08-17T12:26:00;100129.34;;;28.21;36.17
51081;BME280;37130;55.670;37.596;2023-08-17T12:28:28;100114.56;;;28.15;36.91
51081;BME280;37130;55.670;37.596;2023-08-17T12:31:03;100114.56;;;28.15;36.21
51081;BME280;37130;55.670;37.596;2023-08-17T12:33:30;100126.50;;;28.14;36.44
51081;BME280;37130;55.670;37.596;2023-08-17T12:35:57;100095.88;;;27.95;36.43
51081;BME280;37130;55.670;37.596;2023-08-17T12:38:25;100106.78;;;28.04;36.28
51081;BME280;37130;55.670;37.596;2023-08-17T12:40:53;100108.63;;;28.03;36.02
51081;BME280;37130;55.670;37.596;2023-08-17T12:43:21;100098.75;;;28.02;36.67
51081;BME280;37130;55.670;37.596;2023-08-17T12:45:48;100108.09;;;28.08;36.37
51081;BME280;37130;55.670;37.596;2023-08-17T12:48:16;100119.16;;;28.14;36.04
51081;BME280;37130;55.670;37.596;2023-08-17T12:50:44;100081.94;;;27.99;36.66
51081;BME280;37130;55.670;37.596;2023-08-17T12:53:11;100113.69;;;28.23;37.43
51081;BME280;37130;55.670;37.596;2023-08-17T12:55:39;100099.88;;;28.24;37.02